Time;durP1;ratioP1;P1;durP2;ratioP2;P2;SDS_P1;SDS_P2;PMS_P1;PMS_P2;Temp;Humidity;BMP_temperature;BMP_pressure;BME280_temperature;BME280_humidity;BME280_pressure;Samples;Min_cycle;Max_cycle;Signal;HPM_P1;HPM_P2
2021/09/04 00:00:22;;;;;;;6.07;3.57;;;;;;;15.93;63.48;101862.41;6184099;28;21955;-48
2021/09/04 00:03:43;;;;;;;11.10;6.10;;;;;;;15.84;63.81;101860.78;6188474;28;20809;-52
2021/09/04 00:07:04;;;;;;;9.73;4.87;;;;;;;15.88;63.57;101861.63;6184704;28;20643;-52
2021/09/04 00:10:27;;;;;;;5.17;2.67;;;;;;;16.10;62.42;101860.38;6185296;28;20229;-49
2021/09/04 00:13:48;;;;;;;9.27;3.83;;;;;;;15.78;63.41;101863.50;6172798;28;20222;-47
2021/09/04 00:17:09;;;;;;;8.73;4.30;;;;;;;15.70;63.60;101849.56;6185571;28;20234;-51
2021/09/04 00:20:30;;;;;;;7.13;3.27;;;;;;;15.88;63.16;101859.00;6182777;28;20225;-46
2021/09/04 00:23:52;;;;;;;7.03;3.37;;;;;;;15.75;63.21;101853.03;6183758;28;20321;-52
2021/09/04 00:27:14;;;;;;;3.97;2.93;;;;;;;15.69;63.71;101848.72;6179337;28;20235;-49
2021/09/04 00:30:35;;;;;;;6.63;4.20;;;;;;;15.33;64.68;101860.53;6161383;28;20258;-46
2021/09/04 00:33:56;;;;;;;8.43;4.17;;;;;;;15.46;64.31;101851.63;6169586;28;20707;-46
2021/09/04 00:37:17;;;;;;;5.80;3.60;;;;;;;15.52;63.90;101856.81;6161152;28;20230;-47
2021/09/04 00:40:37;;;;;;;6.50;4.67;;;;;;;15.50;64.25;101857.72;6169361;28;20238;-46
2021/09/04 00:43:59;;;;;;;5.40;3.13;;;;;;;15.67;63.24;101852.25;6167930;28;20238;-45
2021/09/04 00:47:20;;;;;;;4.70;2.93;;;;;;;15.72;63.15;101855.66;6171994;28;20532;-52
2021/09/04 00:50:41;;;;;;;9.93;4.10;;;;;;;15.30;64.40;101861.47;6170542;28;20230;-48
2021/09/04 00:54:03;;;;;;;7.30;5.57;;;;;;;15.55;63.73;101855.91;6188856;28;20229;-47
2021/09/04 00:57:24;;;;;;;7.17;3.10;;;;;;;15.47;63.52;101856.00;6177757;28;20260;-49
2021/09/04 01:00:51;;;;;;;5.63;2.90;;;;;;;15.20;64.73;101858.94;6185805;28;20272;-49
2021/09/04 01:04:13;;;;;;;5.37;3.10;;;;;;;15.10;65.09;101859.09;6179701;28;20584;-49
2021/09/04 01:07:34;;;;;;;6.67;2.77;;;;;;;15.27;64.59;101855.38;6180273;28;20237;-47
2021/09/04 01:10:56;;;;;;;3.63;2.60;;;;;;;15.30;63.83;101855.34;6187429;28;20608;-50
2021/09/04 01:14:17;;;;;;;7.80;3.20;;;;;;;15.75;62.59;101853.03;6179237;28;20719;-52
2021/09/04 01:17:40;;;;;;;5.20;2.97;;;;;;;15.63;63.22;101847.94;6175247;28;20569;-50
2021/09/04 01:21:02;;;;;;;4.57;2.83;;;;;;;15.32;63.79;101853.59;6182008;28;20257;-46
2021/09/04 01:24:23;;;;;;;9.87;4.47;;;;;;;15.35;63.94;101857.03;6184638;28;20356;-48
2021/09/04 01:27:45;;;;;;;6.23;3.33;;;;;;;15.60;63.27;101853.22;6176218;28;20226;-49
2021/09/04 01:31:07;;;;;;;5.40;2.67;;;;;;;15.57;63.15;101856.75;6169227;28;20266;-46
2021/09/04 01:34:28;;;;;;;8.00;4.40;;;;;;;15.51;63.40;101849.84;6173902;28;20230;-54
2021/09/04 01:37:49;;;;;;;4.13;2.90;;;;;;;15.86;62.59;101851.13;6178478;28;20313;-49
2021/09/04 01:41:10;;;;;;;6.37;3.10;;;;;;;15.69;62.95;101847.84;6174534;28;20270;-49
2021/09/04 01:44:32;;;;;;;5.47;2.57;;;;;;;15.89;61.96;101845.81;6159191;28;20245;-48
2021/09/04 01:47:53;;;;;;;6.60;3.43;;;;;;;15.92;61.94;101840.53;6167648;28;20670;-48
2021/09/04 01:51:15;;;;;;;5.10;3.10;;;;;;;15.82;62.15;101844.19;6164617;28;20326;-52
2021/09/04 01:54:35;;;;;;;6.37;3.33;;;;;;;15.90;61.92;101837.06;6170992;28;20257;-48
2021/09/04 01:57:57;;;;;;;6.90;2.83;;;;;;;15.89;62.16;101839.69;6167674;28;20670;-50
2021/09/04 02:01:19;;;;;;;5.03;2.50;;;;;;;15.96;61.86;101836.09;6169074;28;20268;-48
2021/09/04 02:04:40;;;;;;;3.53;3.03;;;;;;;15.91;62.12;101823.00;6179441;28;20325;-49
2021/09/04 02:08:01;;;;;;;4.50;2.47;;;;;;;15.98;61.83;101822.94;6152482;28;20318;-49
2021/09/04 02:11:22;;;;;;;7.47;2.97;;;;;;;16.15;61.14;101831.44;6165291;28;20222;-47
2021/09/04 02:14:43;;;;;;;4.40;2.53;;;;;;;16.18;61.57;101820.00;6170645;28;20230;-53
2021/09/04 02:18:06;;;;;;;10.67;4.67;;;;;;;16.07;62.05;101812.28;6161293;28;20544;-47
2021/09/04 02:21:26;;;;;;;5.67;2.43;;;;;;;16.31;60.51;101811.00;6168875;28;20471;-50
2021/09/04 02:24:48;;;;;;;12.23;3.17;;;;;;;16.37;60.78;101810.03;6139647;28;20337;-51
2021/09/04 02:28:09;;;;;;;5.20;2.57;;;;;;;16.28;60.83;101817.16;6160437;28;20258;-48
2021/09/04 02:31:30;;;;;;;6.20;2.47;;;;;;;16.33;61.05;101815.34;6164759;28;20226;-47
2021/09/04 02:34:52;;;;;;;3.03;2.23;;;;;;;16.17;60.72;101807.72;6191772;28;20237;-52
2021/09/04 02:38:14;;;;;;;4.40;3.20;;;;;;;16.18;61.52;101815.59;6152347;28;20542;-48
2021/09/04 02:41:36;;;;;;;4.63;3.10;;;;;;;16.41;60.91;101811.72;6175012;28;20262;-47
2021/09/04 02:44:57;;;;;;;4.07;2.80;;;;;;;16.34;61.49;101805.69;6191767;28;20615;-47
2021/09/04 02:48:19;;;;;;;5.40;3.20;;;;;;;16.44;60.91;101803.75;6171962;28;20222;-50
2021/09/04 02:51:41;;;;;;;7.77;3.33;;;;;;;16.42;60.72;101809.06;6167681;28;20243;-49
2021/09/04 02:55:03;;;;;;;6.70;3.77;;;;;;;16.37;60.77;101800.38;6190590;28;20233;-49
2021/09/04 02:58:24;;;;;;;6.13;3.17;;;;;;;16.43;61.21;101809.94;6171628;28;20438;-48
2021/09/04 03:01:46;;;;;;;8.17;4.00;;;;;;;16.60;60.21;101807.88;6178583;28;20354;-49
2021/09/04 03:05:09;;;;;;;5.07;2.10;;;;;;;16.70;59.34;101803.28;6168018;28;20258;-50
2021/09/04 03:08:35;;;;;;;6.23;3.10;;;;;;;16.41;60.24;101801.19;6148197;28;20226;-48
2021/09/04 03:11:57;;;;;;;7.73;3.17;;;;;;;16.60;60.07;101797.34;6145416;28;20235;-51
2021/09/04 03:15:18;;;;;;;8.60;3.70;;;;;;;16.62;60.28;101806.06;6171736;28;20324;-49
2021/09/04 03:18:40;;;;;;;6.53;4.47;;;;;;;16.57;60.29;101807.91;6155697;28;20508;-49
2021/09/04 03:22:03;;;;;;;5.63;3.73;;;;;;;16.63;59.56;101807.78;6153288;28;20235;-51
2021/09/04 03:25:25;;;;;;;5.63;4.27;;;;;;;16.52;60.07;101810.63;6169735;28;20222;-53
2021/09/04 03:28:46;;;;;;;7.53;4.57;;;;;;;16.64;59.50;101809.53;6160097;28;20230;-44
2021/09/04 03:32:08;;;;;;;7.13;4.70;;;;;;;16.65;59.22;101795.50;6160598;28;20247;-50
2021/09/04 03:35:29;;;;;;;8.03;5.27;;;;;;;16.71;58.75;101805.91;6176698;28;20230;-46
2021/09/04 03:38:50;;;;;;;5.70;3.90;;;;;;;16.47;59.33;101812.47;6158647;28;20321;-51
2021/09/04 03:42:13;;;;;;;6.53;3.67;;;;;;;16.57;59.36;101807.91;6158247;28;20235;-50
2021/09/04 03:45:35;;;;;;;6.33;3.40;;;;;;;16.65;58.63;101800.78;6160239;28;20241;-48
2021/09/04 03:48:59;;;;;;;7.90;4.43;;;;;;;16.62;58.67;101806.06;6174514;28;20497;-46
2021/09/04 03:52:21;;;;;;;5.03;4.13;;;;;;;16.48;59.05;101803.69;6146487;28;20258;-52
2021/09/04 03:55:42;;;;;;;4.23;3.83;;;;;;;16.58;59.00;101812.28;6175489;28;20321;-48
2021/09/04 03:59:05;;;;;;;6.03;4.00;;;;;;;16.82;58.68;101813.59;6152810;28;20234;-51
2021/09/04 04:02:27;;;;;;;12.03;5.67;;;;;;;16.76;58.91;101807.56;6159354;28;20250;-49
2021/09/04 04:05:47;;;;;;;8.70;4.47;;;;;;;17.03;58.05;101812.31;6170370;28;20230;-48
2021/09/04 04:09:08;;;;;;;8.53;5.43;;;;;;;17.08;58.07;101813.09;6144647;28;20854;-48
2021/09/04 04:12:30;;;;;;;8.20;4.70;;;;;;;16.80;58.56;101804.84;6178099;28;20245;-50
2021/09/04 04:15:53;;;;;;;5.40;4.20;;;;;;;16.98;58.34;101806.28;6173119;28;20249;-45
2021/09/04 04:19:15;;;;;;;4.83;3.80;;;;;;;16.83;58.48;101801.34;6162768;28;20234;-48
2021/09/04 04:22:36;;;;;;;8.37;4.20;;;;;;;16.71;58.18;101808.53;6165728;28;20238;-48
2021/09/04 04:25:57;;;;;;;8.23;3.90;;;;;;;16.56;58.31;101798.31;6180042;28;20316;-46
2021/09/04 04:29:18;;;;;;;6.60;4.83;;;;;;;16.73;58.20;101806.75;6174262;28;20514;-46
2021/09/04 04:32:41;;;;;;;7.43;4.23;;;;;;;16.67;58.07;101812.13;6150088;28;20237;-44
2021/09/04 04:36:03;;;;;;;7.43;5.13;;;;;;;16.54;57.67;101815.88;6173185;28;20262;-51
2021/09/04 04:39:24;;;;;;;7.23;4.80;;;;;;;16.62;56.82;101815.72;6151726;28;20243;-51
2021/09/04 04:42:45;;;;;;;11.10;5.37;;;;;;;16.27;57.68;101818.06;6140769;28;20235;-48
2021/09/04 04:46:07;;;;;;;13.00;5.87;;;;;;;16.69;57.17;101819.97;6169426;28;20687;-46
2021/09/04 04:49:29;;;;;;;14.63;5.00;;;;;;;16.55;57.37;101820.22;6174065;28;20412;-47
2021/09/04 04:52:50;;;;;;;7.80;4.93;;;;;;;16.61;57.19;101804.31;6161062;28;20253;-48
2021/09/04 04:56:12;;;;;;;8.07;6.03;;;;;;;16.43;57.52;101809.94;6171831;28;20597;-46
2021/09/04 04:59:33;;;;;;;6.03;5.43;;;;;;;16.91;56.69;101809.94;6141855;28;20242;-46
2021/09/04 05:02:54;;;;;;;10.10;5.27;;;;;;;16.92;56.42;101814.28;6160408;28;20257;-52
2021/09/04 05:06:19;;;;;;;7.97;6.30;;;;;;;16.95;56.37;101816.88;6170381;28;20230;-50
2021/09/04 05:09:40;;;;;;;6.57;5.37;;;;;;;16.78;56.49;101816.31;6147670;28;20230;-49
2021/09/04 05:13:02;;;;;;;7.50;5.43;;;;;;;16.59;57.23;101810.50;6162992;28;20253;-46
2021/09/04 05:16:23;;;;;;;9.83;5.57;;;;;;;16.63;57.72;101807.78;6170197;28;20720;-50
2021/09/04 05:19:44;;;;;;;11.33;6.80;;;;;;;16.75;56.96;101806.72;6150154;28;20253;-47
2021/09/04 05:23:08;;;;;;;10.33;7.03;;;;;;;16.77;56.39;101817.19;6166279;28;20526;-46
2021/09/04 05:26:29;;;;;;;9.33;7.07;;;;;;;16.94;55.89;101809.88;6168134;28;20581;-50
2021/09/04 05:29:51;;;;;;;15.77;10.07;;;;;;;16.79;56.98;101812.75;6166726;28;20934;-51
2021/09/04 05:33:12;;;;;;;10.20;7.37;;;;;;;16.90;56.30;101809.09;6172025;28;20258;-46
2021/09/04 05:36:32;;;;;;;9.57;6.90;;;;;;;17.09;55.34;101812.19;6181499;28;20660;-53
2021/09/04 05:39:56;;;;;;;14.40;8.80;;;;;;;16.89;55.36;101801.22;6173329;28;20251;-48
2021/09/04 05:43:16;;;;;;;10.70;8.20;;;;;;;16.69;55.96;101810.34;6172298;28;20492;-47
2021/09/04 05:46:37;;;;;;;9.73;7.77;;;;;;;16.84;55.46;101808.31;6171817;28;20249;-52
2021/09/04 05:49:59;;;;;;;11.20;6.60;;;;;;;17.00;54.81;101809.78;6185364;28;20343;-48
2021/09/04 05:53:19;;;;;;;15.23;9.10;;;;;;;16.94;54.98;101815.13;6155774;28;20222;-48
2021/09/04 05:56:41;;;;;;;11.20;8.67;;;;;;;16.90;54.91;101801.19;6168006;28;20272;-45
2021/09/04 06:00:03;;;;;;;13.47;9.43;;;;;;;17.21;53.96;101789.16;6165014;28;20231;-45
2021/09/04 06:03:32;;;;;;;11.63;8.07;;;;;;;17.23;54.08;101789.97;6160063;28;20246;-49
2021/09/04 06:06:53;;;;;;;9.90;8.00;;;;;;;17.17;54.13;101798.00;6157445;28;20234;-47
2021/09/04 06:10:14;;;;;;;12.87;8.60;;;;;;;17.26;54.33;101797.81;6182280;28;20238;-48
2021/09/04 06:13:36;;;;;;;11.93;9.13;;;;;;;17.52;53.98;101803.41;6158903;28;20234;-48
2021/09/04 06:16:57;;;;;;;14.50;8.93;;;;;;;17.45;54.30;101803.56;6168880;28;20593;-49
2021/09/04 06:20:18;;;;;;;15.23;9.23;;;;;;;17.55;54.12;101809.50;6166374;28;20241;-51
2021/09/04 06:23:39;;;;;;;13.20;7.93;;;;;;;17.22;54.13;101817.22;6159586;28;20246;-53
2021/09/04 06:27:00;;;;;;;11.43;8.30;;;;;;;17.41;53.31;101815.94;6166006;28;20273;-47
2021/09/04 06:30:22;;;;;;;12.20;8.15;;;;;;;17.64;53.38;101817.16;6164094;28;20616;-50
2021/09/04 06:33:43;;;;;;;13.18;9.45;;;;;;;17.64;53.31;101820.69;6144853;28;20231;-46
2021/09/04 06:37:04;;;;;;;9.90;8.48;;;;;;;17.84;53.02;101812.34;6169115;28;20245;-52
2021/09/04 06:40:25;;;;;;;13.35;7.57;;;;;;;17.73;53.19;101818.75;6173291;28;20253;-47
2021/09/04 06:43:46;;;;;;;11.18;8.63;;;;;;;17.49;53.92;101814.00;6161709;28;20639;-48
2021/09/04 06:47:09;;;;;;;12.30;10.48;;;;;;;17.84;53.35;101812.34;6162110;28;20599;-48
2021/09/04 06:50:30;;;;;;;12.75;8.98;;;;;;;17.92;52.56;101816.56;6166984;28;20329;-48
2021/09/04 06:53:50;;;;;;;19.75;10.05;;;;;;;18.19;51.84;101818.53;6155724;28;20328;-49
2021/09/04 06:57:11;;;;;;;14.35;9.68;;;;;;;18.10;52.27;101816.13;6175526;28;20527;-51
2021/09/04 07:00:32;;;;;;;11.70;8.93;;;;;;;17.93;51.99;101810.38;6180191;28;20314;-51
2021/09/04 07:03:54;;;;;;;12.02;9.27;;;;;;;17.92;51.63;101821.84;6166333;28;20234;-48
2021/09/04 07:07:15;;;;;;;13.70;10.20;;;;;;;18.37;51.47;101816.34;6161828;28;20890;-50
2021/09/04 07:10:36;;;;;;;11.23;10.03;;;;;;;18.17;52.00;101819.50;6168319;28;20581;-47
2021/09/04 07:13:57;;;;;;;16.43;8.93;;;;;;;18.24;51.70;101816.66;6164361;28;20227;-47
2021/09/04 07:17:18;;;;;;;11.27;8.20;;;;;;;18.51;51.00;101824.75;6160294;28;20230;-46
2021/09/04 07:20:40;;;;;;;11.02;8.13;;;;;;;18.44;50.40;101817.91;6164837;28;20528;-48
2021/09/04 07:24:01;;;;;;;13.93;9.27;;;;;;;18.53;51.34;101817.66;6148792;28;20238;-51
2021/09/04 07:27:22;;;;;;;11.90;7.95;;;;;;;18.57;50.50;101816.69;6154064;28;20247;-50
2021/09/04 07:30:43;;;;;;;10.15;8.60;;;;;;;18.46;50.80;101831.94;6148478;28;20234;-49
2021/09/04 07:34:04;;;;;;;12.65;7.97;;;;;;;18.57;50.40;101823.72;6160186;28;20458;-49
2021/09/04 07:37:26;;;;;;;12.23;10.05;;;;;;;18.83;50.94;101823.06;6156816;28;20229;-52
2021/09/04 07:40:47;;;;;;;9.98;8.70;;;;;;;18.98;49.71;101822.63;6170585;28;20234;-48
2021/09/04 07:44:08;;;;;;;10.07;8.43;;;;;;;18.87;49.05;101820.28;6151926;28;20239;-51
2021/09/04 07:47:29;;;;;;;8.52;6.05;;;;;;;18.87;48.16;101816.78;6154186;28;21054;-48
2021/09/04 07:50:50;;;;;;;9.40;6.15;;;;;;;19.06;47.37;101823.28;6163792;28;20243;-48
2021/09/04 07:54:12;;;;;;;7.60;5.85;;;;;;;19.06;46.25;101822.41;6152996;28;20349;-48
2021/09/04 07:57:33;;;;;;;9.30;6.32;;;;;;;19.26;46.66;101824.47;6165499;28;20604;-48
2021/09/04 08:00:54;;;;;;;6.90;5.88;;;;;;;19.62;45.98;101833.06;6167693;28;20346;-50
2021/09/04 08:04:15;;;;;;;8.60;7.53;;;;;;;19.33;46.22;101828.66;6160385;28;20243;-50
2021/09/04 08:07:37;;;;;;;9.93;6.07;;;;;;;19.34;45.67;101830.38;6162039;28;20230;-47
2021/09/04 08:10:59;;;;;;;6.68;5.93;;;;;;;19.81;45.22;101827.22;6168150;28;20231;-50
2021/09/04 08:14:20;;;;;;;6.70;5.72;;;;;;;20.00;44.92;101833.66;6150354;28;20238;-53
2021/09/04 08:17:41;;;;;;;7.20;5.43;;;;;;;20.18;44.99;101828.66;6159642;28;20321;-51
2021/09/04 08:21:02;;;;;;;7.28;5.60;;;;;;;19.72;45.07;101831.03;6176117;28;20229;-49
2021/09/04 08:24:22;;;;;;;6.22;5.65;;;;;;;19.91;44.65;101838.38;6164662;28;20225;-49
2021/09/04 08:27:45;;;;;;;7.05;5.68;;;;;;;19.64;45.88;101833.03;6168465;28;20608;-47
2021/09/04 08:31:06;;;;;;;16.30;5.95;;;;;;;19.58;45.64;101843.75;6171031;28;20317;-48
2021/09/04 08:34:27;;;;;;;6.63;4.65;;;;;;;19.61;45.81;101841.03;6147123;28;20222;-46
2021/09/04 08:37:50;;;;;;;5.47;4.97;;;;;;;20.19;46.08;101844.50;6145544;28;20739;-50
2021/09/04 08:41:10;;;;;;;8.60;6.05;;;;;;;20.10;45.84;101850.06;6167303;28;20239;-48
2021/09/04 08:44:32;;;;;;;7.55;5.47;;;;;;;20.37;47.33;101852.72;6149203;28;20266;-50
2021/09/04 08:47:54;;;;;;;10.20;5.80;;;;;;;20.90;44.97;101858.00;6165251;28;20230;-53
2021/09/04 08:51:15;;;;;;;7.53;5.63;;;;;;;21.18;44.98;101849.88;6156141;28;20230;-51
2021/09/04 08:54:36;;;;;;;7.90;5.53;;;;;;;21.76;45.86;101856.56;6172442;28;20304;-49
2021/09/04 08:57:57;;;;;;;8.52;5.75;;;;;;;21.50;44.75;101846.97;6149288;28;20239;-50
2021/09/04 09:01:22;;;;;;;6.57;5.80;;;;;;;21.10;45.64;101859.91;6170872;28;20226;-51
2021/09/04 09:04:58;;;;;;;6.22;4.40;;;;;;;20.94;47.12;101867.53;6143400;28;20235;-48
2021/09/04 09:08:24;;;;;;;7.20;6.30;;;;;;;20.66;46.73;101867.66;6163327;28;20234;-52
2021/09/04 09:11:45;;;;;;;7.13;5.18;;;;;;;21.01;46.09;101877.00;6171553;28;20238;-51
2021/09/04 09:15:07;;;;;;;7.30;5.60;;;;;;;21.11;46.13;101868.69;6167164;28;20250;-50
2021/09/04 09:18:29;;;;;;;8.48;5.65;;;;;;;21.28;46.14;101871.59;6145169;28;20238;-50
2021/09/04 09:21:50;;;;;;;6.50;5.32;;;;;;;21.71;44.80;101863.81;6129387;28;20227;-48
2021/09/04 09:25:16;;;;;;;8.60;6.40;;;;;;;21.68;44.57;101871.91;6141524;28;21223;-50
2021/09/04 09:28:39;;;;;;;7.28;6.22;;;;;;;21.16;45.69;101872.06;6154173;28;20503;-52
2021/09/04 09:32:01;;;;;;;7.22;6.00;;;;;;;20.36;48.14;101880.13;6150754;28;20227;-51
2021/09/04 09:35:34;;;;;;;6.35;5.75;;;;;;;20.59;47.79;101876.69;6164578;28;20230;-47
2021/09/04 09:38:55;;;;;;;8.32;5.93;;;;;;;21.11;47.51;101879.28;6158139;28;20615;-48
2021/09/04 09:42:19;;;;;;;6.72;5.20;;;;;;;20.90;47.16;101879.16;6160421;28;20607;-50
2021/09/04 09:45:58;;;;;;;9.00;5.50;;;;;;;20.79;46.84;101887.47;6180582;28;20691;-51
2021/09/04 09:49:26;;;;;;;7.47;5.70;;;;;;;21.43;45.84;101884.31;6172285;28;20230;-49
2021/09/04 09:52:48;;;;;;;8.32;5.47;;;;;;;21.23;46.29;101886.81;6176007;28;20320;-47
2021/09/04 09:56:09;;;;;;;7.65;5.35;;;;;;;21.42;46.62;101890.50;6170197;28;20237;-51
2021/09/04 09:59:30;;;;;;;7.53;5.68;;;;;;;21.26;47.19;101897.28;6173369;28;20229;-51
2021/09/04 10:02:52;;;;;;;7.93;5.85;;;;;;;21.12;47.95;101889.84;6156520;28;20230;-48
2021/09/04 10:06:14;;;;;;;6.82;5.65;;;;;;;21.80;46.40;101888.19;6189734;28;20320;-50
2021/09/04 10:09:39;;;;;;;6.90;5.75;;;;;;;21.60;46.05;101882.81;6176578;28;20238;-51
2021/09/04 10:12:59;;;;;;;10.65;6.88;;;;;;;21.53;46.34;101895.41;6175360;28;21103;-51
2021/09/04 10:16:22;;;;;;;7.88;6.40;;;;;;;22.10;45.88;101894.97;6182230;28;20608;-49
2021/09/04 10:19:43;;;;;;;7.75;6.05;;;;;;;22.45;44.51;101890.94;6177867;28;20638;-50
2021/09/04 10:23:23;;;;;;;8.20;5.90;;;;;;;22.11;45.02;101894.06;6156366;28;20234;-51
2021/09/04 10:26:46;;;;;;;8.52;6.38;;;;;;;22.02;45.38;101892.63;6188938;28;20214;-48
2021/09/04 10:30:28;;;;;;;7.00;5.68;;;;;;;22.40;44.28;101898.22;6186004;28;20237;-54
2021/09/04 10:33:49;;;;;;;7.85;5.57;;;;;;;21.85;45.42;101892.44;6167216;28;20337;-48
2021/09/04 10:37:16;;;;;;;9.15;5.95;;;;;;;22.02;46.44;101895.28;6147924;28;20237;-49
2021/09/04 10:40:39;;;;;;;8.40;6.20;;;;;;;21.94;45.24;101894.72;6180971;28;20230;-46
2021/09/04 10:44:05;;;;;;;8.75;6.45;;;;;;;22.15;45.42;101887.72;6149793;28;20226;-45
2021/09/04 10:47:26;;;;;;;10.80;6.55;;;;;;;22.29;45.39;101885.38;6154885;28;20330;-51
2021/09/04 10:51:02;;;;;;;9.48;6.18;;;;;;;21.96;46.22;101883.13;6171178;28;20226;-52
2021/09/04 10:54:59;;;;;;;6.35;5.00;;;;;;;21.96;45.69;101884.94;6161955;28;20501;-47
2021/09/04 10:58:20;;;;;;;10.55;6.10;;;;;;;22.45;45.48;101879.41;6154652;28;20227;-53
2021/09/04 11:01:53;;;;;;;6.50;5.60;;;;;;;22.50;45.08;101873.00;6187543;28;20257;-52
2021/09/04 11:05:48;;;;;;;8.38;5.50;;;;;;;22.52;44.88;101870.28;6188612;28;20755;-52
2021/09/04 11:09:13;;;;;;;8.40;5.68;;;;;;;23.07;43.80;101861.72;6156679;28;20560;-48
2021/09/04 11:12:34;;;;;;;7.55;5.35;;;;;;;23.17;42.36;101863.03;6163785;28;20238;-51
2021/09/04 11:15:55;;;;;;;9.43;5.65;;;;;;;23.57;42.49;101863.84;6166029;28;20222;-47
2021/09/04 11:19:21;;;;;;;9.35;5.50;;;;;;;25.41;37.13;101872.31;6162457;28;20247;-52
2021/09/04 11:22:45;;;;;;;7.20;4.63;;;;;;;27.64;33.72;101869.75;6162962;28;20214;-52
2021/09/04 11:26:06;;;;;;;5.78;4.78;;;;;;;29.18;27.20;101872.81;6164732;28;22284;-52
2021/09/04 11:29:27;;;;;;;5.55;4.57;;;;;;;25.62;33.11;101874.72;6171109;28;20623;-47
2021/09/04 11:32:48;;;;;;;5.03;4.53;;;;;;;25.01;35.51;101881.56;6159197;28;20243;-51
2021/09/04 11:36:10;;;;;;;7.22;6.10;;;;;;;24.79;36.43;101882.69;6163040;28;20239;-50
2021/09/04 11:39:36;;;;;;;6.95;4.35;;;;;;;23.48;38.48;101880.25;6150162;28;20230;-53
2021/09/04 11:42:57;;;;;;;5.97;3.60;;;;;;;22.80;39.88;101888.56;6167304;28;20233;-54
2021/09/04 11:46:25;;;;;;;6.22;4.47;;;;;;;25.97;35.37;101880.75;6181148;28;20237;-52
2021/09/04 11:49:48;;;;;;;6.30;4.05;;;;;;;32.41;25.28;101867.47;6167936;28;20241;-52
2021/09/04 11:53:12;;;;;;;5.30;4.07;;;;;;;33.61;22.89;101870.44;6150872;28;20819;-49
2021/09/04 11:56:34;;;;;;;6.35;4.63;;;;;;;32.00;24.15;101864.56;6174033;28;20632;-52
2021/09/04 12:00:04;;;;;;;5.90;4.00;;;;;;;30.98;25.21;101855.81;6149600;28;20841;-53
2021/09/04 12:03:35;;;;;;;6.07;3.75;;;;;;;27.61;30.84;101856.59;6156184;28;20237;-53
2021/09/04 12:06:56;;;;;;;6.03;3.78;;;;;;;26.40;33.15;101859.56;6170793;28;20229;-50
2021/09/04 12:10:24;;;;;;;6.25;3.75;;;;;;;25.74;35.68;101864.25;6164427;28;20242;-49
2021/09/04 12:13:45;;;;;;;5.32;3.17;;;;;;;25.24;35.42;101872.34;6163993;28;20654;-47
2021/09/04 12:17:07;;;;;;;4.00;3.60;;;;;;;25.10;35.67;101867.75;6157748;28;20227;-51
2021/09/04 12:20:34;;;;;;;5.10;4.00;;;;;;;24.33;36.67;101877.91;6159121;28;20234;-48
2021/09/04 12:23:57;;;;;;;4.85;4.03;;;;;;;24.06;37.53;101874.81;6150515;28;20239;-45
2021/09/04 12:27:35;;;;;;;5.70;4.00;;;;;;;24.56;36.43;101875.88;6156963;28;20234;-48
2021/09/04 12:31:02;;;;;;;6.15;3.35;;;;;;;29.89;27.53;101867.69;6153157;28;20230;-47
2021/09/04 12:34:24;;;;;;;7.30;4.07;;;;;;;27.88;30.18;101878.06;6148184;28;20226;-49
2021/09/04 12:37:45;;;;;;;4.57;3.40;;;;;;;26.89;32.74;101879.84;6164675;28;20654;-49
2021/09/04 12:41:13;;;;;;;4.57;3.47;;;;;;;25.71;34.50;101883.06;6167863;28;20616;-50
2021/09/04 12:44:40;;;;;;;5.63;2.92;;;;;;;25.60;34.75;101888.16;6156136;28;20533;-47
2021/09/04 12:48:01;;;;;;;7.50;4.68;;;;;;;24.91;36.33;101895.38;6165228;28;20241;-50
2021/09/04 12:51:22;;;;;;;6.03;4.00;;;;;;;25.86;33.18;101888.47;6157583;28;20229;-54
2021/09/04 12:54:44;;;;;;;5.93;4.70;;;;;;;28.05;29.76;101887.66;6150864;28;21971;-52
2021/09/04 12:58:05;;;;;;;4.28;3.38;;;;;;;31.97;23.61;101875.63;6165031;28;20258;-48
2021/09/04 13:01:28;;;;;;;5.80;3.50;;;;;;;30.68;25.15;101885.94;6157758;28;20226;-49
2021/09/04 13:04:50;;;;;;;3.38;2.97;;;;;;;27.06;30.11;101890.34;6146156;28;20242;-48
2021/09/04 13:08:11;;;;;;;5.43;3.47;;;;;;;27.00;30.75;101884.50;6141803;28;20239;-49
2021/09/04 13:11:32;;;;;;;4.88;3.40;;;;;;;26.53;32.24;101881.06;6167710;28;20238;-51
2021/09/04 13:14:53;;;;;;;5.88;4.18;;;;;;;27.22;31.42;101874.22;6164299;28;20230;-48
2021/09/04 13:18:15;;;;;;;4.93;2.90;;;;;;;25.98;33.17;101877.16;6158852;28;20254;-46
2021/09/04 13:21:36;;;;;;;4.05;3.75;;;;;;;24.18;35.29;101881.31;6167873;28;20226;-51
2021/09/04 13:24:57;;;;;;;5.53;3.20;;;;;;;27.04;31.98;101861.97;6163125;28;20325;-50
2021/09/04 13:28:18;;;;;;;4.25;3.22;;;;;;;30.78;25.64;101852.84;6156363;28;20226;-46
2021/09/04 13:31:43;;;;;;;4.07;3.08;;;;;;;31.45;24.16;101858.34;6161585;28;20308;-52
2021/09/04 13:35:07;;;;;;;5.05;3.67;;;;;;;33.09;22.23;101860.59;6171510;28;20266;-50
2021/09/04 13:38:27;;;;;;;8.13;4.57;;;;;;;34.34;21.41;101853.88;6154574;28;20313;-52
2021/09/04 13:41:48;;;;;;;5.20;3.40;;;;;;;30.83;24.29;101857.00;6177205;28;20316;-52
2021/09/04 13:45:10;;;;;;;6.55;3.88;;;;;;;28.55;28.51;101863.78;6166722;28;20238;-50
2021/09/04 13:48:31;;;;;;;5.22;3.97;;;;;;;28.44;28.74;101861.81;6153097;28;20227;-49
2021/09/04 13:51:53;;;;;;;5.40;4.22;;;;;;;26.56;31.86;101858.66;6172997;28;20832;-53
2021/09/04 13:55:15;;;;;;;6.32;4.03;;;;;;;26.55;32.19;101867.63;6167829;28;20242;-51
2021/09/04 13:58:35;;;;;;;4.22;3.15;;;;;;;26.10;34.14;101862.25;6159638;28;20234;-49
2021/09/04 14:01:56;;;;;;;5.38;3.97;;;;;;;25.68;34.39;101859.22;6144220;28;20222;-50
2021/09/04 14:05:17;;;;;;;5.22;4.35;;;;;;;25.12;35.25;101865.84;6166349;28;20752;-49
2021/09/04 14:08:41;;;;;;;6.57;3.70;;;;;;;28.88;29.24;101857.03;6142281;28;20656;-49
2021/09/04 14:12:02;;;;;;;4.10;3.03;;;;;;;30.25;26.43;101841.72;6153534;28;20770;-47
2021/09/04 14:15:23;;;;;;;5.47;3.55;;;;;;;31.84;24.91;101843.47;6163262;28;20217;-47
2021/09/04 14:18:44;;;;;;;6.07;4.65;;;;;;;30.40;26.80;101843.25;6158430;28;20230;-48
2021/09/04 14:22:05;;;;;;;3.78;3.03;;;;;;;29.55;27.52;101843.31;6161839;28;20264;-46
2021/09/04 14:25:28;;;;;;;4.30;3.50;;;;;;;27.43;30.52;101849.75;6158384;28;20241;-51
2021/09/04 14:28:49;;;;;;;4.95;3.92;;;;;;;25.73;32.96;101842.97;6153212;28;20226;-50
2021/09/04 14:32:10;;;;;;;6.53;4.60;;;;;;;24.98;35.06;101855.94;6150853;28;20259;-52
2021/09/04 14:35:31;;;;;;;6.47;4.10;;;;;;;26.04;34.15;101854.59;6176777;28;20223;-52
2021/09/04 14:38:52;;;;;;;5.38;4.35;;;;;;;27.03;32.11;101849.59;6158450;28;20231;-45
2021/09/04 14:42:14;;;;;;;5.88;4.10;;;;;;;27.01;31.69;101851.50;6161241;28;20522;-45
2021/09/04 14:45:35;;;;;;;6.95;5.85;;;;;;;26.81;31.85;101850.03;6164888;28;21272;-46
2021/09/04 14:48:56;;;;;;;6.28;4.05;;;;;;;26.95;31.44;101846.50;6151935;28;20231;-48
2021/09/04 14:52:17;;;;;;;4.45;3.58;;;;;;;27.13;31.72;101845.38;6159929;28;20265;-49
2021/09/04 14:55:38;;;;;;;5.63;3.88;;;;;;;27.40;30.75;101836.59;6169647;28;20264;-47
2021/09/04 14:59:01;;;;;;;7.68;5.10;;;;;;;27.61;31.67;101835.19;6166418;28;20234;-50
2021/09/04 15:02:23;;;;;;;4.30;3.85;;;;;;;26.82;33.32;101833.06;6163928;28;20237;-45
2021/09/04 15:05:44;;;;;;;5.80;4.93;;;;;;;26.02;33.73;101840.50;6163888;28;20520;-45
2021/09/04 15:09:05;;;;;;;5.78;3.30;;;;;;;24.67;35.75;101846.06;6156561;28;20511;-48
2021/09/04 15:12:26;;;;;;;5.22;4.55;;;;;;;24.59;36.96;101845.59;6159285;28;20233;-50
2021/09/04 15:15:48;;;;;;;6.80;4.32;;;;;;;24.58;36.53;101854.50;6179560;28;20243;-47
2021/09/04 15:19:11;;;;;;;5.32;4.30;;;;;;;24.58;36.95;101852.69;6156753;28;20234;-50
2021/09/04 15:22:32;;;;;;;6.43;4.22;;;;;;;24.70;36.79;101854.75;6159670;28;20243;-47
2021/09/04 15:25:53;;;;;;;6.22;4.90;;;;;;;24.81;36.77;101848.84;6178261;28;20257;-47
2021/09/04 15:29:14;;;;;;;6.72;4.55;;;;;;;25.50;35.59;101837.13;6156159;28;20615;-48
2021/09/04 15:32:36;;;;;;;6.80;4.28;;;;;;;25.59;34.75;101837.56;6155832;28;20828;-51
2021/09/04 15:35:58;;;;;;;5.57;4.85;;;;;;;26.01;35.26;101849.44;6170686;28;20235;-50
2021/09/04 15:39:19;;;;;;;5.53;4.22;;;;;;;26.12;34.38;101849.66;6171138;28;20261;-46